Time;durP1;ratioP1;P1;durP2;ratioP2;P2;SDS_P1;SDS_P2;PMS_P1;PMS_P2;Temp;Humidity;BMP_temperature;BMP_pressure;BME280_temperature;BME280_humidity;BME280_pressure;Samples;Min_cycle;Max_cycle;Signal;HPM_P1;HPM_P2
2023/07/10 00:01:00;;;;;;;4.70;4.30;;;23.70;91.10;;;26.55;58.64;101633.69;5058864;28;20209;-57
2023/07/10 00:03:30;;;;;;;4.63;4.07;;;23.70;91.10;;;26.55;59.03;101649.91;5055414;28;20190;-57
2023/07/10 00:05:58;;;;;;;4.70;3.87;;;23.70;91.10;;;26.58;58.33;101659.34;5055412;28;20651;-59
2023/07/10 00:08:26;;;;;;;4.73;4.33;;;23.80;91.10;;;26.58;58.38;101652.06;5055282;28;20565;-58
2023/07/10 00:10:53;;;;;;;6.20;4.40;;;23.70;91.10;;;26.55;58.20;101649.09;5055238;28;20236;-57
2023/07/10 00:13:21;;;;;;;4.50;4.10;;;23.80;90.90;;;26.52;58.28;101642.31;5055523;28;20221;-57
2023/07/10 00:15:51;;;;;;;5.37;4.87;;;23.70;90.90;;;26.48;58.32;101638.47;5055551;28;20194;-57
2023/07/10 00:18:22;;;;;;;4.60;4.20;;;23.70;90.80;;;26.43;58.38;101627.66;5055109;28;20268;-57
2023/07/10 00:20:50;;;;;;;4.10;3.70;;;23.70;90.90;;;26.44;58.62;101628.44;5054823;28;20236;-59
2023/07/10 00:23:17;;;;;;;4.43;4.13;;;23.70;91.00;;;26.46;58.67;101631.72;5055125;28;20225;-59
2023/07/10 00:25:45;;;;;;;5.07;4.60;;;23.70;91.10;;;26.47;58.92;101631.47;5068118;28;20219;-57
2023/07/10 00:28:16;;;;;;;4.97;4.47;;;23.70;91.10;;;26.47;58.54;101642.25;5075022;28;20196;-56
2023/07/10 00:30:45;;;;;;;4.60;4.23;;;23.70;91.10;;;26.50;58.77;101639.06;5075240;28;20584;-59
2023/07/10 00:33:15;;;;;;;5.17;4.77;;;23.70;91.00;;;26.48;58.86;101633.06;5075265;28;20529;-59
2023/07/10 00:35:44;;;;;;;4.97;4.43;;;23.70;91.00;;;26.44;58.66;101636.53;5075699;28;20220;-55
2023/07/10 00:38:18;;;;;;;5.17;4.67;;;23.70;90.80;;;26.42;59.02;101646.78;5073695;28;20715;-58
2023/07/10 00:40:47;;;;;;;4.13;3.83;;;23.70;90.90;;;26.44;58.53;101658.97;5074407;28;20403;-56
2023/07/10 00:43:28;;;;;;;4.37;3.97;;;23.70;91.00;;;26.41;59.01;101661.38;5074488;28;20200;-59
2023/07/10 00:46:09;;;;;;;4.77;4.37;;;23.70;91.00;;;26.44;59.09;101672.47;5074904;28;20193;-57
2023/07/10 00:48:42;;;;;;;4.93;4.43;;;23.70;91.00;;;26.47;59.16;101671.16;5074457;28;20237;-55
2023/07/10 00:51:26;;;;;;;4.80;4.40;;;23.70;91.10;;;26.48;58.74;101678.97;5074116;28;20216;-55
2023/07/10 00:53:56;;;;;;;5.00;4.60;;;23.80;91.00;;;26.53;58.56;101680.94;5074363;28;20201;-58
2023/07/10 00:56:33;;;;;;;6.47;5.27;;;23.80;90.90;;;26.53;58.45;101683.66;5074168;28;20205;-56
2023/07/10 00:59:21;;;;;;;5.47;4.97;;;23.70;91.00;;;26.41;58.43;101700.00;5073204;28;20231;-60
2023/07/10 01:02:18;;;;;;;6.03;5.53;;;23.80;90.80;;;26.31;59.36;101708.00;5054564;28;20174;-57
2023/07/10 01:04:54;;;;;;;6.93;5.40;;;23.70;90.80;;;26.29;58.72;101723.66;5054223;28;20665;-58
2023/07/10 01:07:26;;;;;;;6.23;5.60;;;23.70;90.80;;;26.30;58.69;101727.16;5054358;28;20556;-55
2023/07/10 01:10:00;;;;;;;5.43;5.03;;;23.70;90.90;;;26.27;59.14;101733.88;5053872;28;20256;-59
2023/07/10 01:12:30;;;;;;;6.10;5.60;;;23.60;90.80;;;26.24;58.50;101739.81;5054433;28;20178;-58
2023/07/10 01:14:57;;;;;;;6.53;6.03;;;23.60;90.80;;;26.23;58.58;101734.63;5054717;28;20185;-57
2023/07/10 01:17:27;;;;;;;7.30;6.63;;;23.50;90.90;;;26.22;59.19;101733.81;5054110;28;20281;-58
2023/07/10 01:19:59;;;;;;;7.47;6.87;;;23.50;91.00;;;26.15;59.28;101739.41;5053948;28;20259;-58
2023/07/10 01:22:28;;;;;;;6.73;6.13;;;23.50;91.00;;;26.11;58.86;101742.88;5070496;28;20226;-57
2023/07/10 01:24:56;;;;;;;8.10;6.33;;;23.50;91.10;;;26.08;59.48;101743.34;5072996;28;20657;-58
2023/07/10 01:27:23;;;;;;;6.03;5.53;;;23.40;91.10;;;26.06;59.64;101745.50;5073976;28;20201;-58
2023/07/10 01:30:00;;;;;;;9.00;6.07;;;23.40;91.20;;;26.05;59.39;101750.06;5073548;28;20213;-57
2023/07/10 01:32:29;;;;;;;7.77;7.07;;;23.30;91.40;;;26.08;59.46;101743.34;5074027;28;20199;-58
2023/07/10 01:35:03;;;;;;;8.23;7.43;;;23.30;91.40;;;26.05;59.62;101743.88;5074153;28;20195;-60
2023/07/10 01:37:31;;;;;;;8.03;7.13;;;23.30;91.40;;;26.04;59.10;101742.22;5073625;28;20608;-59
2023/07/10 01:39:58;;;;;;;8.10;7.40;;;23.30;91.40;;;26.02;59.09;101729.00;5073654;28;20736;-60
2023/07/10 01:42:26;;;;;;;7.00;6.47;;;23.30;91.50;;;26.03;59.45;101733.31;5073935;28;20189;-61
2023/07/10 01:44:53;;;;;;;7.17;5.70;;;23.20;91.60;;;26.06;60.13;101729.28;5072168;28;20196;-59
2023/07/10 01:47:20;;;;;;;7.23;6.60;;;23.30;91.80;;;26.12;59.56;101728.34;5073948;28;20238;-59
2023/07/10 01:49:53;;;;;;;6.43;5.80;;;23.30;91.80;;;26.18;59.67;101727.31;5073380;28;20677;-59
2023/07/10 01:52:22;;;;;;;7.80;6.83;;;23.30;91.80;;;26.25;59.83;101709.00;5073670;28;20209;-59
2023/07/10 01:54:51;;;;;;;9.07;8.27;;;23.40;91.80;;;26.32;59.61;101712.31;5053396;28;20189;-59
2023/07/10 01:57:23;;;;;;;9.97;9.07;;;23.40;91.60;;;26.34;59.42;101709.41;5053602;28;20213;-56
2023/07/10 01:59:51;;;;;;;8.00;7.20;;;23.50;91.40;;;26.32;59.17;101709.63;5053119;28;20217;-60
2023/07/10 02:02:18;;;;;;;8.43;7.20;;;23.50;91.30;;;26.33;58.69;101702.34;5053518;28;20190;-56
2023/07/10 02:04:45;;;;;;;7.83;7.13;;;23.50;91.30;;;26.34;58.85;101699.38;5053604;28;20185;-59
2023/07/10 02:07:12;;;;;;;9.60;8.77;;;23.50;91.40;;;26.37;59.07;101698.88;5053300;28;20217;-60
2023/07/10 02:09:39;;;;;;;10.60;9.57;;;23.50;91.30;;;26.38;59.17;101694.31;5053207;28;20327;-60
2023/07/10 02:12:09;;;;;;;9.07;8.27;;;23.50;91.20;;;26.38;58.71;101687.03;5053458;28;20658;-60
2023/07/10 02:14:36;;;;;;;10.47;9.47;;;23.50;91.20;;;26.39;58.32;101687.81;5053289;28;20212;-57
2023/07/10 02:17:04;;;;;;;10.03;9.13;;;23.50;91.10;;;26.39;58.37;101696.72;5056137;28;20207;-60
2023/07/10 02:19:31;;;;;;;11.47;10.47;;;23.50;91.00;;;26.37;58.10;101698.88;5073193;28;20228;-58
2023/07/10 02:21:58;;;;;;;12.40;11.03;;;23.50;90.90;;;26.33;58.30;101695.06;5073289;28;20207;-54
2023/07/10 02:24:24;;;;;;;11.57;10.60;;;23.50;90.80;;;26.29;58.67;101693.13;5072861;28;20275;-57
2023/07/10 02:26:51;;;;;;;10.33;9.50;;;23.50;90.80;;;26.27;58.31;101682.56;5073232;28;20189;-60
2023/07/10 02:29:20;;;;;;;8.87;8.17;;;23.40;90.90;;;26.24;58.83;101688.50;5072717;28;20304;-59
2023/07/10 02:31:50;;;;;;;12.30;11.10;;;23.40;90.90;;;26.23;58.95;101681.47;5073102;28;20252;-57
2023/07/10 02:34:17;;;;;;;13.03;11.83;;;23.40;90.90;;;26.24;58.58;101675.00;5073347;28;20193;-55
2023/07/10 02:36:44;;;;;;;12.50;11.40;;;23.40;90.80;;;26.22;58.20;101673.63;5073409;28;20235;-60
2023/07/10 02:39:12;;;;;;;11.57;10.47;;;23.40;90.90;;;26.18;58.84;101674.13;5073108;28;20300;-60
2023/07/10 02:41:38;;;;;;;8.90;8.00;;;23.40;90.90;;;26.17;58.35;101666.28;5073062;28;20198;-60
2023/07/10 02:44:05;;;;;;;11.70;10.67;;;23.40;90.90;;;26.17;58.49;101658.19;5072711;28;20193;-60
2023/07/10 02:46:34;;;;;;;9.97;9.07;;;23.40;90.90;;;26.17;58.53;101669.00;5073158;28;20284;-58
2023/07/10 02:49:01;;;;;;;13.37;12.07;;;23.40;90.90;;;26.19;58.44;101674.94;5069699;28;20225;-59
2023/07/10 02:51:28;;;;;;;11.07;10.17;;;23.40;90.90;;;26.21;58.55;101667.41;5064292;28;20262;-58
2023/07/10 02:53:55;;;;;;;12.30;11.03;;;23.40;90.90;;;26.23;58.89;101662.56;5073254;28;20201;-58
2023/07/10 02:56:22;;;;;;;15.17;12.27;;;23.40;90.90;;;26.23;58.16;101667.97;5073260;28;20585;-57
2023/07/10 02:58:50;;;;;;;14.77;13.57;;;23.40;90.90;;;26.23;58.46;101677.94;5072682;28;20213;-58
2023/07/10 03:01:17;;;;;;;16.73;15.00;;;23.40;90.80;;;26.19;58.44;101685.75;5053504;28;20278;-59
2023/07/10 03:03:46;;;;;;;17.00;15.40;;;23.40;90.80;;;26.15;58.09;101684.59;5052730;28;20190;-59
2023/07/10 03:06:14;;;;;;;17.17;15.40;;;23.40;90.90;;;26.11;58.77;101680.78;5053006;28;20272;-60
2023/07/10 03:08:41;;;;;;;15.53;13.90;;;23.30;90.90;;;26.07;58.25;101675.06;5052279;28;20228;-60
2023/07/10 03:11:15;;;;;;;16.27;14.03;;;23.30;90.90;;;26.07;58.96;101685.03;5052132;28;20220;-58
2023/07/10 03:13:42;;;;;;;14.80;13.40;;;23.30;91.10;;;26.10;59.04;101688.06;5059222;28;20739;-59
2023/07/10 03:16:12;;;;;;;16.33;14.83;;;23.30;91.20;;;26.11;58.86;101694.28;5072450;28;20189;-58
2023/07/10 03:18:40;;;;;;;16.63;14.93;;;23.30;91.10;;;26.10;58.27;101687.25;5074789;28;20219;-58
2023/07/10 03:21:10;;;;;;;16.80;15.10;;;23.30;91.10;;;26.06;58.72;101691.50;5076181;28;20185;-55
2023/07/10 03:23:37;;;;;;;15.50;14.10;;;23.20;91.00;;;26.04;58.96;101702.56;5076468;28;20229;-58
2023/07/10 03:26:04;;;;;;;16.50;14.80;;;23.20;91.00;;;26.03;59.07;101700.13;5076044;28;20221;-56
2023/07/10 03:28:35;;;;;;;15.83;14.13;;;23.20;91.10;;;26.03;58.52;101700.13;5076318;28;20189;-57
2023/07/10 03:31:03;;;;;;;16.87;13.50;;;23.20;91.20;;;26.05;59.24;101711.47;5076398;28;20209;-58
2023/07/10 03:33:30;;;;;;;17.30;15.47;;;23.20;91.20;;;26.07;59.17;101723.66;5076073;28;20192;-58
2023/07/10 03:35:58;;;;;;;14.63;13.13;;;23.20;91.20;;;26.07;58.35;101712.03;5057213;28;20240;-60
2023/07/10 03:38:27;;;;;;;14.53;13.03;;;23.20;91.10;;;26.06;58.98;101694.19;5055815;28;20272;-56
2023/07/10 03:40:56;;;;;;;16.47;13.43;;;23.20;91.20;;;26.06;58.42;101705.81;5055725;28;20288;-58
2023/07/10 03:43:25;;;;;;;15.63;14.07;;;23.20;91.20;;;26.08;58.32;101706.38;5055603;28;20201;-57
2023/07/10 03:45:55;;;;;;;13.20;11.90;;;23.20;91.10;;;26.07;58.94;101687.75;5055819;28;20198;-58
2023/07/10 03:48:22;;;;;;;14.47;13.10;;;23.20;91.10;;;26.10;59.02;101681.84;5056026;28;20860;-57
2023/07/10 03:50:49;;;;;;;14.70;13.40;;;23.20;91.00;;;26.08;58.74;101678.56;5061394;28;20534;-56
2023/07/10 03:53:16;;;;;;;15.97;14.30;;;23.20;91.00;;;26.04;58.32;101690.94;5075743;28;20614;-58
2023/07/10 03:55:53;;;;;;;18.37;16.70;;;23.20;90.90;;;26.01;58.73;101694.16;5075788;28;20228;-56
2023/07/10 03:58:24;;;;;;;18.47;16.73;;;23.20;91.00;;;25.99;58.22;101696.28;5075539;28;20189;-58
2023/07/10 04:00:51;;;;;;;21.43;19.20;;;23.20;91.10;;;25.99;58.54;101694.41;5059289;28;20218;-56
2023/07/10 04:03:22;;;;;;;20.77;18.70;;;23.20;91.10;;;25.99;58.24;101688.19;5055398;28;20649;-57
2023/07/10 04:05:52;;;;;;;21.23;19.03;;;23.20;91.10;;;25.96;59.03;101680.63;5055346;28;20265;-56
2023/07/10 04:08:21;;;;;;;21.33;19.20;;;23.20;91.10;;;25.97;58.64;101674.13;5055544;28;20212;-59
2023/07/10 04:10:51;;;;;;;20.40;18.30;;;23.10;91.20;;;25.97;58.92;101684.94;5068154;28;20296;-58
2023/07/10 04:13:19;;;;;;;23.13;20.77;;;23.10;91.20;;;25.99;58.57;101690.88;5075690;28;20241;-58
2023/07/10 04:15:57;;;;;;;20.27;18.30;;;23.10;91.30;;;25.96;58.45;101676.00;5075674;28;20661;-59
2023/07/10 04:18:26;;;;;;;23.47;21.17;;;23.10;91.20;;;25.97;58.46;101649.84;5075648;28;20271;-55
2023/07/10 04:20:53;;;;;;;22.60;20.23;;;23.10;91.20;;;25.96;58.72;101669.81;5057028;28;20268;-56
2023/07/10 04:23:20;;;;;;;27.63;23.17;;;23.10;91.30;;;25.98;59.25;101700.06;5056045;28;20265;-58
2023/07/10 04:25:49;;;;;;;24.03;21.10;;;23.10;91.30;;;25.98;58.77;101705.47;5055201;28;20300;-56
2023/07/10 04:28:16;;;;;;;19.87;17.97;;;23.10;91.40;;;25.97;59.29;101720.00;5054526;28;20197;-59
2023/07/10 04:30:45;;;;;;;17.27;15.57;;;23.10;91.40;;;25.95;59.15;101732.94;5054352;28;20213;-58
2023/07/10 04:33:14;;;;;;;14.30;12.87;;;23.10;91.50;;;25.91;59.12;101729.13;5054724;28;20650;-60
2023/07/10 04:35:41;;;;;;;11.60;10.60;;;23.10;91.60;;;25.89;59.17;101729.38;5054676;28;20268;-59
2023/07/10 04:38:08;;;;;;;13.93;12.27;;;23.10;92.00;;;25.87;59.16;101714.50;5054972;28;20225;-59
2023/07/10 04:40:36;;;;;;;12.83;11.53;;;23.10;91.80;;;25.85;59.94;101722.84;5054102;28;20213;-59
2023/07/10 04:43:04;;;;;;;14.13;11.67;;;23.10;91.90;;;25.86;59.41;101734.47;5053592;28;20182;-59
2023/07/10 04:45:31;;;;;;;10.50;9.37;;;23.00;91.90;;;25.83;59.54;101718.78;5054551;28;20206;-59
2023/07/10 04:47:58;;;;;;;10.43;9.43;;;23.00;91.90;;;25.86;60.48;101729.06;5053231;28;20729;-57
2023/07/10 04:50:25;;;;;;;10.53;9.53;;;23.10;92.10;;;25.84;60.19;101715.03;5056487;28;20689;-60
2023/07/10 04:52:52;;;;;;;9.80;9.00;;;23.10;91.90;;;25.80;60.36;101714.69;5074209;28;20272;-57
2023/07/10 04:55:19;;;;;;;9.93;9.03;;;23.00;91.90;;;25.80;60.02;101712.00;5074414;28;20217;-59
2023/07/10 04:57:46;;;;;;;8.63;7.77;;;23.10;92.10;;;25.80;60.64;101701.19;5074274;28;20216;-60
2023/07/10 05:00:17;;;;;;;10.83;9.83;;;23.00;92.10;;;25.81;60.41;101712.81;5062906;28;20237;-59
2023/07/10 05:02:44;;;;;;;11.50;9.23;;;23.00;92.30;;;25.83;59.99;101691.78;5054455;28;20174;-60
2023/07/10 05:05:11;;;;;;;11.80;10.60;;;23.00;92.20;;;25.85;60.51;101689.66;5055065;28;20296;-59
2023/07/10 05:07:38;;;;;;;11.53;10.33;;;23.10;92.30;;;25.89;60.11;101686.19;5071934;28;20599;-59
2023/07/10 05:10:06;;;;;;;15.00;13.27;;;23.10;92.30;;;25.93;60.63;101698.13;5073939;28;20395;-59
2023/07/10 05:12:33;;;;;;;13.83;12.33;;;23.10;92.30;;;25.95;60.35;101712.19;5073885;28;20232;-58
2023/07/10 05:15:00;;;;;;;11.27;10.17;;;23.10;92.40;;;25.96;60.76;101707.59;5074206;28;20189;-59
2023/07/10 05:17:28;;;;;;;11.33;10.23;;;23.10;92.40;;;26.00;60.33;101709.53;5073978;28;20189;-59
2023/07/10 05:19:55;;;;;;;11.97;10.77;;;23.10;92.50;;;26.03;59.93;101721.72;5073543;28;20216;-60
2023/07/10 05:22:22;;;;;;;11.90;10.70;;;23.10;92.30;;;26.02;60.52;101723.59;5073408;28;20269;-60
2023/07/10 05:24:49;;;;;;;10.47;9.57;;;23.20;92.20;;;26.02;60.11;101723.59;5073648;28;20225;-59
2023/07/10 05:27:16;;;;;;;12.23;10.97;;;23.20;92.20;;;26.00;59.94;101728.44;5073147;28;20615;-58
2023/07/10 05:29:43;;;;;;;10.70;9.73;;;23.10;92.20;;;26.01;60.29;101731.94;5073218;28;20248;-60
2023/07/10 05:32:10;;;;;;;12.90;9.87;;;23.10;92.20;;;26.03;60.45;101729.81;5073510;28;20229;-59
2023/07/10 05:34:39;;;;;;;9.27;8.23;;;23.10;92.20;;;26.05;60.39;101733.06;5073828;28;20185;-59
2023/07/10 05:37:06;;;;;;;11.47;10.37;;;23.10;92.20;;;26.06;60.35;101723.88;5073477;28;20190;-58
2023/07/10 05:39:33;;;;;;;16.07;12.97;;;23.20;92.20;;;26.05;60.19;101727.69;5073228;28;20670;-59
2023/07/10 05:42:00;;;;;;;14.43;13.03;;;23.20;92.10;;;26.05;59.64;101733.06;5072986;28;20720;-59
2023/07/10 05:44:27;;;;;;;13.87;12.53;;;23.20;92.10;;;26.04;59.71;101731.44;5073457;28;20185;-62
2023/07/10 05:46:56;;;;;;;15.50;13.83;;;23.20;92.10;;;26.08;59.52;101732.53;5072689;28;20272;-59
2023/07/10 05:49:23;;;;;;;19.30;17.30;;;23.20;92.10;;;26.10;59.56;101723.16;5072826;28;20255;-57
2023/07/10 05:51:52;;;;;;;19.10;17.13;;;23.20;92.10;;;26.09;59.70;101740.41;5072072;28;20296;-59
2023/07/10 05:54:19;;;;;;;18.83;16.27;;;23.20;92.00;;;26.03;59.92;101738.72;5073306;28;20227;-59
2023/07/10 05:56:47;;;;;;;18.27;15.90;;;23.20;91.90;;;26.01;59.28;101745.44;5073354;28;20186;-56
2023/07/10 05:59:15;;;;;;;18.27;14.83;;;23.10;91.90;;;26.00;59.64;101747.34;5070230;28;20301;-56
2023/07/10 06:01:42;;;;;;;16.37;13.63;;;23.10;92.10;;;26.00;59.90;101755.44;5054064;28;20297;-57
2023/07/10 06:04:09;;;;;;;18.03;16.13;;;23.10;92.10;;;26.02;60.13;101755.16;5053026;28;20198;-56
2023/07/10 06:06:36;;;;;;;24.67;19.27;;;23.20;92.20;;;26.07;59.75;101760.63;5053101;28;20190;-56
2023/07/10 06:09:04;;;;;;;19.40;17.27;;;23.10;92.20;;;26.11;60.29;101759.91;5052916;28;20289;-59
2023/07/10 06:11:33;;;;;;;19.43;15.83;;;23.20;92.20;;;26.11;59.59;101762.59;5053346;28;20696;-60
2023/07/10 06:13:59;;;;;;;17.93;14.00;;;23.20;92.20;;;26.15;59.89;101766.41;5052798;28;20194;-56
2023/07/10 06:16:27;;;;;;;19.47;16.77;;;23.20;92.20;;;26.25;60.14;101767.59;5052987;28;20280;-55
2023/07/10 06:18:55;;;;;;;15.10;13.50;;;23.20;92.20;;;26.32;59.40;101766.34;5052552;28;20244;-59
2023/07/10 06:21:22;;;;;;;15.77;13.07;;;23.30;92.10;;;26.37;58.89;101763.69;5053330;28;20267;-56
2023/07/10 06:23:49;;;;;;;14.47;12.97;;;23.30;92.00;;;26.40;59.00;101765.91;5051884;28;20236;-58
2023/07/10 06:26:17;;;;;;;15.50;13.80;;;23.40;92.00;;;26.45;59.40;101782.16;5053226;28;20248;-59
2023/07/10 06:28:44;;;;;;;16.57;13.20;;;23.40;91.70;;;26.51;58.88;101783.00;5052157;28;20200;-57
2023/07/10 06:31:11;;;;;;;12.60;11.30;;;23.50;91.70;;;26.59;58.99;101777.97;5052921;28;20194;-55
2023/07/10 06:33:39;;;;;;;11.97;9.53;;;23.50;91.60;;;26.61;58.20;101775.00;5052751;28;20201;-58
2023/07/10 06:36:06;;;;;;;11.93;9.87;;;23.60;91.40;;;26.60;57.97;101770.69;5053034;28;20268;-58
2023/07/10 06:38:34;;;;;;;11.30;9.73;;;23.60;91.30;;;26.59;58.31;101764.47;5052067;28;20205;-59
2023/07/10 06:41:05;;;;;;;21.17;10.33;;;23.60;91.30;;;26.60;58.12;101757.19;5052972;28;20220;-58
2023/07/10 06:43:34;;;;;;;9.63;8.63;;;23.60;91.10;;;26.62;58.02;101761.28;5052491;28;20557;-60
2023/07/10 06:46:01;;;;;;;11.23;8.90;;;23.60;91.00;;;26.65;57.68;101760.72;5053333;28;20687;-60
2023/07/10 06:48:29;;;;;;;10.43;9.23;;;23.70;91.10;;;26.71;58.21;101762.44;5052238;28;20559;-60
2023/07/10 06:50:56;;;;;;;11.30;9.70;;;23.70;91.10;;;26.79;57.90;101758.47;5057527;28;20270;-60
2023/07/10 06:53:24;;;;;;;11.73;8.80;;;23.70;90.90;;;26.85;57.78;101771.78;5075269;28;20213;-59
2023/07/10 06:55:57;;;;;;;14.80;9.73;;;23.80;90.90;;;26.89;57.42;101782.06;5076375;28;20565;-59
2023/07/10 06:58:24;;;;;;;10.03;8.47;;;23.90;90.90;;;26.88;57.09;101783.97;5075882;28;20205;-57
2023/07/10 07:00:54;;;;;;;11.50;8.13;;;23.90;90.70;;;26.88;57.06;101780.44;5060128;28;20218;-60
2023/07/10 07:03:21;;;;;;;12.10;8.13;;;23.90;90.50;;;26.80;56.38;101785.25;5056249;28;20269;-56
2023/07/10 07:05:48;;;;;;;12.87;7.17;;;23.90;90.00;;;26.73;56.74;101784.59;5056247;28;20201;-55
2023/07/10 07:08:17;;;;;;;7.90;6.67;;;23.90;90.00;;;26.70;56.45;101781.56;5055962;28;20259;-59
2023/07/10 07:10:46;;;;;;;9.00;6.70;;;23.80;89.50;;;26.65;56.61;101787.75;5055966;28;20288;-56
2023/07/10 07:13:14;;;;;;;7.97;6.17;;;23.80;89.50;;;26.66;56.68;101794.81;5056166;28;20210;-59
2023/07/10 07:15:41;;;;;;;11.93;6.20;;;23.80;89.60;;;26.75;56.56;101778.97;5056234;28;20225;-60
2023/07/10 07:18:09;;;;;;;7.03;5.63;;;23.80;89.70;;;26.90;56.09;101779.09;5056134;28;20293;-58
2023/07/10 07:20:38;;;;;;;8.47;6.03;;;23.80;89.80;;;27.07;55.64;101789.78;5055885;28;20216;-57
2023/07/10 07:23:05;;;;;;;11.40;5.90;;;23.90;89.60;;;27.17;54.98;101787.19;5055791;28;20189;-59
2023/07/10 07:25:32;;;;;;;8.50;6.03;;;23.90;87.70;;;27.25;54.45;101795.63;5056106;28;20256;-60
2023/07/10 07:27:59;;;;;;;9.87;6.40;;;24.00;87.10;;;27.31;53.89;101797.28;5055837;28;20273;-60
2023/07/10 07:30:28;;;;;;;7.43;5.60;;;24.10;87.10;;;27.36;53.31;101794.59;5055153;28;20214;-58
2023/07/10 07:32:56;;;;;;;7.00;5.27;;;24.10;86.50;;;27.42;52.92;101796.31;5055663;28;20305;-59
2023/07/10 07:35:24;;;;;;;14.00;6.53;;;24.20;86.40;;;27.48;53.21;101797.16;5055646;28;20190;-58
2023/07/10 07:37:51;;;;;;;9.87;7.20;;;24.30;86.90;;;27.63;53.03;101799.13;5055698;28;20224;-61
2023/07/10 07:40:18;;;;;;;13.07;6.50;;;24.40;85.80;;;27.70;51.94;101795.13;5055192;28;20296;-56
2023/07/10 07:42:46;;;;;;;10.27;5.53;;;24.40;84.30;;;27.77;51.43;101790.28;5055066;28;20297;-60
2023/07/10 07:45:15;;;;;;;9.90;5.53;;;24.50;83.80;;;27.85;51.25;101795.22;5057888;28;20193;-58
2023/07/10 07:47:43;;;;;;;7.67;5.10;;;24.60;83.50;;;27.94;51.01;101796.34;5054696;28;20201;-59
2023/07/10 07:50:11;;;;;;;6.93;5.30;;;24.60;82.80;;;28.05;50.42;101797.25;5054934;28;20724;-59
2023/07/10 07:52:40;;;;;;;7.47;5.43;;;24.70;82.20;;;28.25;49.95;101796.47;5055170;28;20249;-60
2023/07/10 07:55:08;;;;;;;12.17;6.10;;;24.80;82.00;;;28.36;49.26;101804.38;5062165;28;20263;-59
2023/07/10 07:57:38;;;;;;;5.27;4.77;;;24.90;80.90;;;28.43;48.93;101798.72;5073947;28;20196;-60
2023/07/10 08:00:08;;;;;;;5.93;4.10;;;25.00;80.30;;;28.45;48.67;101801.97;5056630;28;20245;-59
2023/07/10 08:02:35;;;;;;;5.17;4.03;;;25.10;80.10;;;28.52;48.85;101800.63;5054153;28;20218;-58
2023/07/10 08:05:02;;;;;;;4.57;3.50;;;25.20;80.30;;;28.66;48.47;101803.66;5054073;28;20201;-58
2023/07/10 08:07:33;;;;;;;7.00;4.03;;;25.20;80.30;;;28.82;48.74;101802.59;5056529;28;20557;-60
2023/07/10 08:10:03;;;;;;;7.63;4.40;;;25.40;79.70;;;28.91;48.18;101805.59;5069317;28;20213;-58
2023/07/10 08:12:30;;;;;;;4.77;3.90;;;25.50;79.60;;;28.98;48.11;101801.53;5059579;28;20589;-59
2023/07/10 08:14:58;;;;;;;5.23;3.97;;;25.60;79.70;;;29.05;48.16;101810.19;5054830;28;20249;-60
2023/07/10 08:17:25;;;;;;;5.33;4.13;;;25.60;78.60;;;29.05;47.11;101818.34;5073155;28;20235;-59
2023/07/10 08:19:52;;;;;;;6.17;4.40;;;25.70;78.00;;;29.40;47.55;101810.25;5067127;28;20224;-59
2023/07/10 08:22:19;;;;;;;5.77;4.23;;;25.70;78.40;;;29.97;46.40;101825.31;5054363;28;20190;-58
2023/07/10 08:24:46;;;;;;;4.80;3.50;;;25.90;78.20;;;30.20;45.28;101811.09;5054156;28;20282;-58
2023/07/10 08:27:14;;;;;;;5.33;4.30;;;26.20;77.10;;;30.25;44.69;101827.38;5055559;28;20267;-58
2023/07/10 08:29:41;;;;;;;4.73;3.67;;;26.30;74.70;;;30.23;44.57;101826.84;5063782;28;20732;-57
2023/07/10 08:32:09;;;;;;;5.87;4.50;;;26.40;74.50;;;30.17;44.57;101826.06;5069882;28;20248;-60
2023/07/10 08:34:36;;;;;;;3.40;3.00;;;26.60;74.00;;;30.14;44.39;101828.53;5074486;28;20216;-58
2023/07/10 08:37:05;;;;;;;5.07;3.33;;;26.60;73.30;;;30.07;44.05;101828.81;5069418;28;20185;-59
2023/07/10 08:39:32;;;;;;;4.17;3.63;;;26.60;73.00;;;29.98;43.73;101826.94;5061220;28;20643;-59
2023/07/10 08:42:16;;;;;;;4.47;2.97;;;26.60;72.30;;;29.87;43.78;101831.59;5054320;28;20205;-58
2023/07/10 08:44:49;;;;;;;3.77;3.10;;;26.60;72.20;;;29.72;43.78;101833.50;5060990;28;20193;-59
2023/07/10 08:47:23;;;;;;;3.70;3.30;;;26.50;71.30;;;29.57;43.94;101839.78;5054174;28;20277;-57
2023/07/10 08:50:00;;;;;;;4.37;3.07;;;26.40;71.30;;;29.45;43.95;101845.47;5061539;28;20294;-61
2023/07/10 08:52:37;;;;;;;4.20;3.80;;;26.30;71.70;;;29.28;45.02;101839.56;5073098;28;20209;-59
2023/07/10 08:55:11;;;;;;;4.47;3.90;;;26.20;72.40;;;29.18;45.54;101833.25;5065404;28;20712;-58
2023/07/10 08:57:48;;;;;;;4.93;3.27;;;26.10;73.30;;;29.19;45.62;101841.16;5072877;28;20196;-59
2023/07/10 09:00:16;;;;;;;4.50;3.07;;;26.10;73.50;;;29.19;45.27;101852.00;5061348;28;20229;-58
2023/07/10 09:02:49;;;;;;;3.33;2.60;;;26.00;72.40;;;29.03;45.08;101841.38;5054546;28;20658;-56
2023/07/10 09:05:23;;;;;;;5.07;3.20;;;25.90;71.60;;;28.92;44.47;101851.44;5061133;28;20203;-60
2023/07/10 09:07:51;;;;;;;3.20;2.90;;;25.90;71.20;;;28.94;44.51;101849.25;5073412;28;20189;-60
2023/07/10 09:10:22;;;;;;;5.00;3.00;;;25.80;71.30;;;29.27;44.53;101840.63;5073465;28;20649;-59
2023/07/10 09:12:53;;;;;;;4.13;3.13;;;25.80;71.90;;;29.95;43.07;101850.03;5067241;28;20289;-60
2023/07/10 09:15:28;;;;;;;6.13;4.17;;;26.00;72.20;;;30.90;42.18;101860.78;5061848;28;20203;-60
2023/07/10 09:18:05;;;;;;;4.30;3.90;;;26.30;72.30;;;31.11;41.15;101856.81;5073307;28;20173;-58
2023/07/10 09:20:36;;;;;;;4.57;4.13;;;26.60;71.20;;;31.14;41.68;101858.97;5067747;28;20225;-57
2023/07/10 09:23:20;;;;;;;4.43;3.40;;;26.90;70.50;;;30.87;40.80;101866.75;5068411;28;20188;-59
2023/07/10 09:25:55;;;;;;;4.07;3.43;;;27.00;69.20;;;30.58;41.19;101870.19;5064196;28;20261;-59
2023/07/10 09:28:24;;;;;;;3.80;2.73;;;27.10;68.30;;;30.30;41.32;101868.13;5061059;28;20233;-59
2023/07/10 09:31:20;;;;;;;3.50;2.50;;;27.00;67.50;;;29.98;42.13;101865.78;5051583;28;20719;-58
2023/07/10 09:33:58;;;;;;;3.73;2.63;;;26.90;67.30;;;29.82;42.43;101874.25;5052280;28;20209;-59
2023/07/10 09:36:26;;;;;;;3.03;2.60;;;26.80;67.60;;;29.92;42.47;101876.94;5059244;28;20204;-59
2023/07/10 09:38:56;;;;;;;3.43;2.63;;;26.70;68.00;;;30.05;41.51;101870.91;5053366;28;20205;-57
2023/07/10 09:41:27;;;;;;;2.50;2.30;;;26.70;68.80;;;30.10;41.01;101860.03;5052913;28;20205;-59
2023/07/10 09:44:10;;;;;;;2.70;2.10;;;26.70;66.90;;;30.69;40.12;101866.31;5054462;28;20591;-59
2023/07/10 09:46:39;;;;;;;3.77;2.50;;;26.70;67.10;;;32.33;38.47;101873.59;5052707;28;20538;-59
2023/07/10 09:49:14;;;;;;;4.77;2.40;;;27.10;67.90;;;34.45;35.36;101865.38;5058144;28;20222;-57
2023/07/10 09:51:56;;;;;;;3.70;2.90;;;27.70;66.50;;;35.41;33.05;101861.19;5071039;28;20272;-58
2023/07/10 09:54:24;;;;;;;4.00;2.40;;;28.40;63.00;;;35.41;31.99;101866.69;5064156;28;20630;-60
2023/07/10 09:56:53;;;;;;;5.57;2.13;;;29.10;60.30;;;35.02;32.81;101861.06;5071251;28;20208;-57
2023/07/10 09:59:25;;;;;;;5.77;2.80;;;29.50;58.40;;;34.86;32.40;101865.28;5062692;28;20542;-61
2023/07/10 10:01:55;;;;;;;2.92;2.28;;;29.70;56.90;;;34.60;32.50;101865.88;5059192;28;20561;-58
2023/07/10 10:04:26;;;;;;;2.67;2.07;;;29.80;55.30;;;34.22;31.78;101871.88;5056458;28;20202;-57
2023/07/10 10:07:02;;;;;;;5.13;2.67;;;29.80;54.10;;;33.87;32.59;101865.19;5052315;28;20511;-61
2023/07/10 10:09:30;;;;;;;3.67;2.43;;;29.80;54.00;;;33.96;32.35;101864.19;5052394;28;20641;-59
2023/07/10 10:12:05;;;;;;;4.40;2.43;;;29.70;54.00;;;33.95;32.39;101868.03;5051420;28;20638;-59
2023/07/10 10:14:44;;;;;;;2.97;2.07;;;29.70;53.80;;;34.11;32.59;101865.84;5052222;28;20665;-58
2023/07/10 10:17:20;;;;;;;2.47;1.70;;;29.70;53.90;;;34.13;32.07;101869.06;5051658;28;20284;-59